sensor_id;sensor_type;location;lat;lon;timestamp;temperature;humidity
9437;DHT22;4757;59.334;18.034;2023-05-08T00:00:23;6.20;99.90
9437;DHT22;4757;59.334;18.034;2023-05-08T00:02:52;6.10;99.90
9437;DHT22;4757;59.334;18.034;2023-05-08T00:05:19;6.10;99.90
9437;DHT22;4757;59.334;18.034;2023-05-08T00:07:46;6.10;99.90
9437;DHT22;4757;59.334;18.034;2023-05-08T00:10:14;6.10;99.90
9437;DHT22;4757;59.334;18.034;2023-05-08T00:12:41;6.10;99.90
9437;DHT22;4757;59.334;18.034;2023-05-08T00:15:08;6.10;99.90
9437;DHT22;4757;59.334;18.034;2023-05-08T00:17:36;6.10;99.90
9437;DHT22;4757;59.334;18.034;2023-05-08T00:20:06;6.10;99.90
9437;DHT22;4757;59.334;18.034;2023-05-08T00:22:34;6.00;99.90
9437;DHT22;4757;59.334;18.034;2023-05-08T00:25:01;6.00;99.90
9437;DHT22;4757;59.334;18.034;2023-05-08T00:27:30;6.00;99.90
9437;DHT22;4757;59.334;18.034;2023-05-08T00:29:57;5.90;99.90
9437;DHT22;4757;59.334;18.034;2023-05-08T00:32:25;5.90;99.90
9437;DHT22;4757;59.334;18.034;2023-05-08T00:34:52;6.00;99.90
9437;DHT22;4757;59.334;18.034;2023-05-08T00:37:19;5.90;99.90
9437;DHT22;4757;59.334;18.034;2023-05-08T00:39:46;5.90;99.90
9437;DHT22;4757;59.334;18.034;2023-05-08T00:42:13;6.00;99.90
9437;DHT22;4757;59.334;18.034;2023-05-08T00:44:40;5.90;99.90
9437;DHT22;4757;59.334;18.034;2023-05-08T00:47:07;5.90;99.90
9437;DHT22;4757;59.334;18.034;2023-05-08T00:49:34;6.00;99.90
9437;DHT22;4757;59.334;18.034;2023-05-08T00:52:02;5.90;99.90
9437;DHT22;4757;59.334;18.034;2023-05-08T00:54:30;5.90;99.90
9437;DHT22;4757;59.334;18.034;2023-05-08T00:56:57;6.00;99.90
9437;DHT22;4757;59.334;18.034;2023-05-08T00:59:25;5.90;99.90
9437;DHT22;4757;59.334;18.034;2023-05-08T01:01:53;5.90;99.90
9437;DHT22;4757;59.334;18.034;2023-05-08T01:04:23;6.00;99.90
9437;DHT22;4757;59.334;18.034;2023-05-08T01:06:51;6.00;99.90
9437;DHT22;4757;59.334;18.034;2023-05-08T01:09:18;6.00;99.90
9437;DHT22;4757;59.334;18.034;2023-05-08T01:11:51;5.90;99.90
9437;DHT22;4757;59.334;18.034;2023-05-08T01:16:57;5.90;99.90
9437;DHT22;4757;59.334;18.034;2023-05-08T01:27:49;6.00;99.90
9437;DHT22;4757;59.334;18.034;2023-05-08T01:36:12;6.00;99.90
9437;DHT22;4757;59.334;18.034;2023-05-08T01:38:55;6.00;99.90
9437;DHT22;4757;59.334;18.034;2023-05-08T01:41:26;5.90;99.90
9437;DHT22;4757;59.334;18.034;2023-05-08T01:44:15;5.90;99.90
9437;DHT22;4757;59.334;18.034;2023-05-08T01:46:47;5.90;99.90
9437;DHT22;4757;59.334;18.034;2023-05-08T01:49:33;5.90;99.90
9437;DHT22;4757;59.334;18.034;2023-05-08T01:52:06;5.90;99.90
9437;DHT22;4757;59.334;18.034;2023-05-08T01:54:42;5.90;99.90
9437;DHT22;4757;59.334;18.034;2023-05-08T01:57:11;5.90;99.90
9437;DHT22;4757;59.334;18.034;2023-05-08T01:59:40;5.80;99.90
9437;DHT22;4757;59.334;18.034;2023-05-08T02:02:09;5.80;99.90
9437;DHT22;4757;59.334;18.034;2023-05-08T02:04:38;5.80;99.90
9437;DHT22;4757;59.334;18.034;2023-05-08T02:07:06;5.80;99.90
9437;DHT22;4757;59.334;18.034;2023-05-08T02:09:33;5.80;99.90
9437;DHT22;4757;59.334;18.034;2023-05-08T02:12:01;5.70;99.90
9437;DHT22;4757;59.334;18.034;2023-05-08T02:14:29;5.70;99.90
9437;DHT22;4757;59.334;18.034;2023-05-08T02:16:58;5.70;99.90
9437;DHT22;4757;59.334;18.034;2023-05-08T02:19:27;5.70;99.90
9437;DHT22;4757;59.334;18.034;2023-05-08T02:21:56;5.70;99.90
9437;DHT22;4757;59.334;18.034;2023-05-08T02:24:24;5.70;99.90
9437;DHT22;4757;59.334;18.034;2023-05-08T02:26:52;5.70;99.90
9437;DHT22;4757;59.334;18.034;2023-05-08T02:29:21;5.70;99.90
9437;DHT22;4757;59.334;18.034;2023-05-08T02:31:50;5.70;99.90
9437;DHT22;4757;59.334;18.034;2023-05-08T02:34:18;5.70;99.90
9437;DHT22;4757;59.334;18.034;2023-05-08T02:36:48;5.70;99.90
9437;DHT22;4757;59.334;18.034;2023-05-08T02:39:16;5.80;99.90
9437;DHT22;4757;59.334;18.034;2023-05-08T02:41:45;5.70;99.90
9437;DHT22;4757;59.334;18.034;2023-05-08T02:44:13;5.60;99.90
9437;DHT22;4757;59.334;18.034;2023-05-08T02:46:52;5.50;99.90
9437;DHT22;4757;59.334;18.034;2023-05-08T02:50:28;5.50;99.90
9437;DHT22;4757;59.334;18.034;2023-05-08T02:52:29;5.40;99.90
9437;DHT22;4757;59.334;18.034;2023-05-08T02:55:14;5.50;99.90
9437;DHT22;4757;59.334;18.034;2023-05-08T03:00:25;5.40;99.90
9437;DHT22;4757;59.334;18.034;2023-05-08T03:03:12;5.30;99.90
9437;DHT22;4757;59.334;18.034;2023-05-08T03:05:48;5.20;99.90
9437;DHT22;4757;59.334;18.034;2023-05-08T03:08:20;5.20;99.90
9437;DHT22;4757;59.334;18.034;2023-05-08T03:10:55;5.20;99.90
9437;DHT22;4757;59.334;18.034;2023-05-08T03:13:25;5.20;99.90
9437;DHT22;4757;59.334;18.034;2023-05-08T03:15:54;5.20;99.90
9437;DHT22;4757;59.334;18.034;2023-05-08T03:18:42;5.10;99.90
9437;DHT22;4757;59.334;18.034;2023-05-08T03:21:12;5.20;99.90
9437;DHT22;4757;59.334;18.034;2023-05-08T03:23:45;5.20;99.90
9437;DHT22;4757;59.334;18.034;2023-05-08T03:26:16;5.20;99.90
9437;DHT22;4757;59.334;18.034;2023-05-08T03:28:48;5.20;99.90
9437;DHT22;4757;59.334;18.034;2023-05-08T03:31:17;5.20;99.90
9437;DHT22;4757;59.334;18.034;2023-05-08T03:33:47;5.20;99.90
9437;DHT22;4757;59.334;18.034;2023-05-08T03:36:17;5.10;99.90
9437;DHT22;4757;59.334;18.034;2023-05-08T03:38:44;5.20;99.90
9437;DHT22;4757;59.334;18.034;2023-05-08T03:41:11;5.30;99.90
9437;DHT22;4757;59.334;18.034;2023-05-08T03:43:39;5.20;99.90
9437;DHT22;4757;59.334;18.034;2023-05-08T03:46:07;5.30;99.90
9437;DHT22;4757;59.334;18.034;2023-05-08T03:48:34;5.30;99.90
9437;DHT22;4757;59.334;18.034;2023-05-08T03:51:03;5.40;99.90
9437;DHT22;4757;59.334;18.034;2023-05-08T03:53:31;5.40;99.90
9437;DHT22;4757;59.334;18.034;2023-05-08T03:55:59;5.40;99.90
9437;DHT22;4757;59.334;18.034;2023-05-08T03:58:30;5.40;99.90
9437;DHT22;4757;59.334;18.034;2023-05-08T04:01:06;5.40;99.90
9437;DHT22;4757;59.334;18.034;2023-05-08T04:03:52;5.40;99.90
9437;DHT22;4757;59.334;18.034;2023-05-08T04:14:51;5.50;99.90
9437;DHT22;4757;59.334;18.034;2023-05-08T04:17:41;5.50;99.90
9437;DHT22;4757;59.334;18.034;2023-05-08T04:20:11;5.60;99.90
9437;DHT22;4757;59.334;18.034;2023-05-08T04:22:39;5.70;99.90
9437;DHT22;4757;59.334;18.034;2023-05-08T04:25:09;5.70;99.90
9437;DHT22;4757;59.334;18.034;2023-05-08T04:27:37;5.80;99.90
9437;DHT22;4757;59.334;18.034;2023-05-08T04:30:05;5.90;99.90
9437;DHT22;4757;59.334;18.034;2023-05-08T04:32:34;5.90;99.90
9437;DHT22;4757;59.334;18.034;2023-05-08T04:35:04;6.00;99.90
9437;DHT22;4757;59.334;18.034;2023-05-08T04:37:31;6.20;99.90
9437;DHT22;4757;59.334;18.034;2023-05-08T04:39:59;6.20;99.90
9437;DHT22;4757;59.334;18.034;2023-05-08T04:42:27;6.30;99.90
9437;DHT22;4757;59.334;18.034;2023-05-08T04:44:54;6.40;99.90
9437;DHT22;4757;59.334;18.034;2023-05-08T04:47:21;6.30;99.90
9437;DHT22;4757;59.334;18.034;2023-05-08T04:49:50;6.30;99.90
9437;DHT22;4757;59.334;18.034;2023-05-08T04:52:17;6.40;99.90
9437;DHT22;4757;59.334;18.034;2023-05-08T04:54:44;6.50;99.90
9437;DHT22;4757;59.334;18.034;2023-05-08T04:57:11;6.60;99.90
9437;DHT22;4757;59.334;18.034;2023-05-08T04:59:38;6.70;99.90
9437;DHT22;4757;59.334;18.034;2023-05-08T05:02:05;6.80;99.90
9437;DHT22;4757;59.334;18.034;2023-05-08T05:04:36;6.90;99.90
9437;DHT22;4757;59.334;18.034;2023-05-08T05:07:04;6.90;99.90
9437;DHT22;4757;59.334;18.034;2023-05-08T05:09:31;7.00;99.90
9437;DHT22;4757;59.334;18.034;2023-05-08T05:12:03;7.20;99.90
9437;DHT22;4757;59.334;18.034;2023-05-08T05:14:32;7.30;99.90
9437;DHT22;4757;59.334;18.034;2023-05-08T05:16:59;7.30;99.90
9437;DHT22;4757;59.334;18.034;2023-05-08T05:19:26;7.50;99.90
9437;DHT22;4757;59.334;18.034;2023-05-08T05:21:53;7.60;99.90
9437;DHT22;4757;59.334;18.034;2023-05-08T05:24:20;7.60;99.90
9437;DHT22;4757;59.334;18.034;2023-05-08T05:26:47;7.70;99.90
9437;DHT22;4757;59.334;18.034;2023-05-08T05:29:14;7.80;99.90
9437;DHT22;4757;59.334;18.034;2023-05-08T05:31:40;8.00;99.90
9437;DHT22;4757;59.334;18.034;2023-05-08T05:34:08;8.10;99.90
9437;DHT22;4757;59.334;18.034;2023-05-08T05:36:35;8.10;99.90
9437;DHT22;4757;59.334;18.034;2023-05-08T05:39:02;8.20;99.90
9437;DHT22;4757;59.334;18.034;2023-05-08T05:41:29;8.30;99.90
9437;DHT22;4757;59.334;18.034;2023-05-08T05:43:56;8.40;99.90
9437;DHT22;4757;59.334;18.034;2023-05-08T05:46:23;8.50;99.90
9437;DHT22;4757;59.334;18.034;2023-05-08T05:49:00;8.50;99.90
9437;DHT22;4757;59.334;18.034;2023-05-08T05:51:27;8.60;99.90
9437;DHT22;4757;59.334;18.034;2023-05-08T05:53:54;8.70;99.90
9437;DHT22;4757;59.334;18.034;2023-05-08T05:56:21;8.80;99.90
9437;DHT22;4757;59.334;18.034;2023-05-08T05:58:49;8.90;99.90
9437;DHT22;4757;59.334;18.034;2023-05-08T06:01:16;9.10;99.90
9437;DHT22;4757;59.334;18.034;2023-05-08T06:03:43;9.10;99.90
9437;DHT22;4757;59.334;18.034;2023-05-08T06:06:10;9.20;99.90
9437;DHT22;4757;59.334;18.034;2023-05-08T06:08:38;9.20;99.90
9437;DHT22;4757;59.334;18.034;2023-05-08T06:11:05;9.20;99.90
9437;DHT22;4757;59.334;18.034;2023-05-08T06:13:32;9.40;99.90
9437;DHT22;4757;59.334;18.034;2023-05-08T06:15:59;9.60;99.90
9437;DHT22;4757;59.334;18.034;2023-05-08T06:18:26;9.70;99.90
9437;DHT22;4757;59.334;18.034;2023-05-08T06:20:55;9.70;99.90
9437;DHT22;4757;59.334;18.034;2023-05-08T06:23:23;9.90;99.90
9437;DHT22;4757;59.334;18.034;2023-05-08T06:25:51;10.10;99.90
9437;DHT22;4757;59.334;18.034;2023-05-08T06:28:18;10.20;99.90
9437;DHT22;4757;59.334;18.034;2023-05-08T06:30:45;10.30;99.90
9437;DHT22;4757;59.334;18.034;2023-05-08T06:33:13;10.40;99.90
9437;DHT22;4757;59.334;18.034;2023-05-08T06:35:40;10.50;99.90
9437;DHT22;4757;59.334;18.034;2023-05-08T06:38:06;10.90;99.90
9437;DHT22;4757;59.334;18.034;2023-05-08T06:40:33;11.80;99.90
9437;DHT22;4757;59.334;18.034;2023-05-08T06:43:03;12.40;99.90
9437;DHT22;4757;59.334;18.034;2023-05-08T06:45:30;13.20;99.90
9437;DHT22;4757;59.334;18.034;2023-05-08T06:47:57;13.70;99.90
9437;DHT22;4757;59.334;18.034;2023-05-08T06:50:24;14.30;99.90
9437;DHT22;4757;59.334;18.034;2023-05-08T06:52:51;14.10;99.90
9437;DHT22;4757;59.334;18.034;2023-05-08T06:55:18;14.90;99.90
9437;DHT22;4757;59.334;18.034;2023-05-08T06:57:45;15.00;99.90
9437;DHT22;4757;59.334;18.034;2023-05-08T07:00:13;15.50;99.60
9437;DHT22;4757;59.334;18.034;2023-05-08T07:02:40;15.90;99.40
9437;DHT22;4757;59.334;18.034;2023-05-08T07:05:07;16.10;99.20
9437;DHT22;4757;59.334;18.034;2023-05-08T07:07:34;15.20;99.50
9437;DHT22;4757;59.334;18.034;2023-05-08T07:10:02;15.90;98.90
9437;DHT22;4757;59.334;18.034;2023-05-08T07:12:31;16.40;98.50
9437;DHT22;4757;59.334;18.034;2023-05-08T07:14:57;16.60;97.80
9437;DHT22;4757;59.334;18.034;2023-05-08T07:17:27;16.50;97.70
9437;DHT22;4757;59.334;18.034;2023-05-08T07:19:56;16.60;97.30
9437;DHT22;4757;59.334;18.034;2023-05-08T07:22:23;16.30;97.60
9437;DHT22;4757;59.334;18.034;2023-05-08T07:24:50;16.60;97.70
9437;DHT22;4757;59.334;18.034;2023-05-08T07:27:17;16.90;97.70
9437;DHT22;4757;59.334;18.034;2023-05-08T07:29:45;16.60;97.30
9437;DHT22;4757;59.334;18.034;2023-05-08T07:32:12;17.10;97.40
9437;DHT22;4757;59.334;18.034;2023-05-08T07:34:40;17.00;97.30
9437;DHT22;4757;59.334;18.034;2023-05-08T07:37:08;16.90;97.50
9437;DHT22;4757;59.334;18.034;2023-05-08T07:39:35;17.50;97.40
9437;DHT22;4757;59.334;18.034;2023-05-08T07:42:02;17.10;97.10
9437;DHT22;4757;59.334;18.034;2023-05-08T07:44:32;16.60;98.00
9437;DHT22;4757;59.334;18.034;2023-05-08T07:47:16;16.90;97.10
9437;DHT22;4757;59.334;18.034;2023-05-08T07:49:43;16.60;97.50
9437;DHT22;4757;59.334;18.034;2023-05-08T07:52:10;16.90;97.30
9437;DHT22;4757;59.334;18.034;2023-05-08T07:54:37;16.30;97.30
9437;DHT22;4757;59.334;18.034;2023-05-08T07:57:04;17.10;97.10
9437;DHT22;4757;59.334;18.034;2023-05-08T07:59:31;17.10;97.00
9437;DHT22;4757;59.334;18.034;2023-05-08T08:01:58;15.60;98.20
9437;DHT22;4757;59.334;18.034;2023-05-08T08:04:25;16.30;97.90
9437;DHT22;4757;59.334;18.034;2023-05-08T08:06:53;16.40;97.40
9437;DHT22;4757;59.334;18.034;2023-05-08T08:09:20;16.30;98.00
9437;DHT22;4757;59.334;18.034;2023-05-08T08:11:57;17.10;97.20
9437;DHT22;4757;59.334;18.034;2023-05-08T08:14:24;17.20;97.00
9437;DHT22;4757;59.334;18.034;2023-05-08T08:16:51;17.90;96.60
9437;DHT22;4757;59.334;18.034;2023-05-08T08:19:18;16.50;97.20
9437;DHT22;4757;59.334;18.034;2023-05-08T08:21:45;16.40;97.40
9437;DHT22;4757;59.334;18.034;2023-05-08T08:24:12;16.20;97.70
9437;DHT22;4757;59.334;18.034;2023-05-08T08:26:39;16.50;97.40
9437;DHT22;4757;59.334;18.034;2023-05-08T08:29:06;16.90;97.40
9437;DHT22;4757;59.334;18.034;2023-05-08T08:31:33;18.00;96.40
9437;DHT22;4757;59.334;18.034;2023-05-08T08:34:00;17.60;95.80
9437;DHT22;4757;59.334;18.034;2023-05-08T08:36:28;17.20;96.30
9437;DHT22;4757;59.334;18.034;2023-05-08T08:38:55;18.40;95.50
9437;DHT22;4757;59.334;18.034;2023-05-08T08:41:22;18.80;95.20
9437;DHT22;4757;59.334;18.034;2023-05-08T08:43:49;19.10;94.50
9437;DHT22;4757;59.334;18.034;2023-05-08T08:46:18;19.00;94.40
9437;DHT22;4757;59.334;18.034;2023-05-08T08:48:46;19.40;94.40
9437;DHT22;4757;59.334;18.034;2023-05-08T08:51:22;17.20;95.30
9437;DHT22;4757;59.334;18.034;2023-05-08T08:53:57;17.30;95.70
9437;DHT22;4757;59.334;18.034;2023-05-08T08:56:26;18.50;94.80
9437;DHT22;4757;59.334;18.034;2023-05-08T08:58:57;19.50;94.10
9437;DHT22;4757;59.334;18.034;2023-05-08T09:01:26;19.50;94.00
9437;DHT22;4757;59.334;18.034;2023-05-08T09:03:58;20.00;93.50
9437;DHT22;4757;59.334;18.034;2023-05-08T09:06:25;19.70;93.70
9437;DHT22;4757;59.334;18.034;2023-05-08T09:08:57;19.20;93.90
9437;DHT22;4757;59.334;18.034;2023-05-08T09:11:24;19.20;94.00
9437;DHT22;4757;59.334;18.034;2023-05-08T09:13:53;19.20;93.50
9437;DHT22;4757;59.334;18.034;2023-05-08T09:16:21;19.10;93.50
9437;DHT22;4757;59.334;18.034;2023-05-08T09:18:48;20.10;93.20
9437;DHT22;4757;59.334;18.034;2023-05-08T09:21:15;19.60;93.60
9437;DHT22;4757;59.334;18.034;2023-05-08T09:23:59;20.50;93.00
9437;DHT22;4757;59.334;18.034;2023-05-08T09:26:37;20.80;93.00
9437;DHT22;4757;59.334;18.034;2023-05-08T09:29:14;20.90;92.90
9437;DHT22;4757;59.334;18.034;2023-05-08T09:31:44;21.00;93.00
9437;DHT22;4757;59.334;18.034;2023-05-08T09:34:28;20.80;92.80
9437;DHT22;4757;59.334;18.034;2023-05-08T09:37:10;20.70;92.60
9437;DHT22;4757;59.334;18.034;2023-05-08T09:39:37;21.00;93.00
9437;DHT22;4757;59.334;18.034;2023-05-08T09:42:08;20.60;93.00
9437;DHT22;4757;59.334;18.034;2023-05-08T09:44:44;21.00;93.10
9437;DHT22;4757;59.334;18.034;2023-05-08T09:47:19;20.90;93.00
9437;DHT22;4757;59.334;18.034;2023-05-08T09:50:07;20.60;93.10
9437;DHT22;4757;59.334;18.034;2023-05-08T09:52:36;20.30;93.70
9437;DHT22;4757;59.334;18.034;2023-05-08T09:57:39;20.60;93.60
9437;DHT22;4757;59.334;18.034;2023-05-08T10:00:08;20.90;93.40
9437;DHT22;4757;59.334;18.034;2023-05-08T10:02:37;20.60;93.50
9437;DHT22;4757;59.334;18.034;2023-05-08T10:07:48;21.50;92.50
9437;DHT22;4757;59.334;18.034;2023-05-08T10:10:25;21.00;92.90
9437;DHT22;4757;59.334;18.034;2023-05-08T10:12:54;20.60;93.20
9437;DHT22;4757;59.334;18.034;2023-05-08T10:15:27;20.70;93.40
9437;DHT22;4757;59.334;18.034;2023-05-08T10:18:03;21.00;92.80
9437;DHT22;4757;59.334;18.034;2023-05-08T10:20:38;20.10;93.00
9437;DHT22;4757;59.334;18.034;2023-05-08T10:23:14;20.30;93.30
9437;DHT22;4757;59.334;18.034;2023-05-08T10:25:44;20.70;93.50
9437;DHT22;4757;59.334;18.034;2023-05-08T10:28:36;20.30;94.00
9437;DHT22;4757;59.334;18.034;2023-05-08T10:31:07;20.60;93.90
9437;DHT22;4757;59.334;18.034;2023-05-08T10:33:38;21.00;93.60
9437;DHT22;4757;59.334;18.034;2023-05-08T10:36:06;21.00;93.20
9437;DHT22;4757;59.334;18.034;2023-05-08T10:38:36;21.50;92.50
9437;DHT22;4757;59.334;18.034;2023-05-08T10:41:03;21.70;92.60
9437;DHT22;4757;59.334;18.034;2023-05-08T10:43:31;21.30;93.10
9437;DHT22;4757;59.334;18.034;2023-05-08T10:46:04;21.60;93.10
9437;DHT22;4757;59.334;18.034;2023-05-08T10:49:11;21.30;92.40
9437;DHT22;4757;59.334;18.034;2023-05-08T10:54:33;20.90;93.50
9437;DHT22;4757;59.334;18.034;2023-05-08T10:57:08;21.30;92.90
9437;DHT22;4757;59.334;18.034;2023-05-08T10:59:36;20.90;92.50
9437;DHT22;4757;59.334;18.034;2023-05-08T11:02:05;20.50;92.30
9437;DHT22;4757;59.334;18.034;2023-05-08T11:04:35;20.60;92.70
9437;DHT22;4757;59.334;18.034;2023-05-08T11:07:02;21.30;92.60
9437;DHT22;4757;59.334;18.034;2023-05-08T11:09:50;20.90;92.60
9437;DHT22;4757;59.334;18.034;2023-05-08T11:12:19;20.60;92.10
9437;DHT22;4757;59.334;18.034;2023-05-08T11:14:56;21.00;92.70
9437;DHT22;4757;59.334;18.034;2023-05-08T11:17:24;20.20;93.00
9437;DHT22;4757;59.334;18.034;2023-05-08T11:20:10;20.70;92.60
9437;DHT22;4757;59.334;18.034;2023-05-08T11:22:46;20.40;92.20
9437;DHT22;4757;59.334;18.034;2023-05-08T11:25:13;20.10;92.70
9437;DHT22;4757;59.334;18.034;2023-05-08T11:30:35;20.90;86.50
9437;DHT22;4757;59.334;18.034;2023-05-08T11:38:35;21.40;85.90
9437;DHT22;4757;59.334;18.034;2023-05-08T11:46:07;22.00;88.50
9437;DHT22;4757;59.334;18.034;2023-05-08T11:48:39;21.70;87.90
9437;DHT22;4757;59.334;18.034;2023-05-08T11:51:06;21.00;88.90
9437;DHT22;4757;59.334;18.034;2023-05-08T11:53:34;20.90;89.10
9437;DHT22;4757;59.334;18.034;2023-05-08T11:56:02;19.80;90.30
9437;DHT22;4757;59.334;18.034;2023-05-08T11:58:29;19.90;90.40
9437;DHT22;4757;59.334;18.034;2023-05-08T12:00:57;20.40;90.70
9437;DHT22;4757;59.334;18.034;2023-05-08T12:03:24;21.10;90.50
9437;DHT22;4757;59.334;18.034;2023-05-08T12:05:55;22.30;89.10
9437;DHT22;4757;59.334;18.034;2023-05-08T12:08:22;21.80;89.80
9437;DHT22;4757;59.334;18.034;2023-05-08T12:10:50;21.90;87.70
9437;DHT22;4757;59.334;18.034;2023-05-08T12:13:25;22.20;87.80
9437;DHT22;4757;59.334;18.034;2023-05-08T12:15:59;22.50;87.90
9437;DHT22;4757;59.334;18.034;2023-05-08T12:18:27;22.10;86.70
9437;DHT22;4757;59.334;18.034;2023-05-08T12:20:59;19.30;89.90
9437;DHT22;4757;59.334;18.034;2023-05-08T12:23:30;20.90;90.60
9437;DHT22;4757;59.334;18.034;2023-05-08T12:26:00;21.50;90.70
9437;DHT22;4757;59.334;18.034;2023-05-08T12:28:27;21.60;90.70
9437;DHT22;4757;59.334;18.034;2023-05-08T12:30:55;21.70;89.60
9437;DHT22;4757;59.334;18.034;2023-05-08T12:33:25;22.30;89.20
9437;DHT22;4757;59.334;18.034;2023-05-08T12:35:53;21.60;89.90
9437;DHT22;4757;59.334;18.034;2023-05-08T12:38:27;22.10;89.50
9437;DHT22;4757;59.334;18.034;2023-05-08T12:40:54;21.30;90.40
9437;DHT22;4757;59.334;18.034;2023-05-08T12:43:30;20.80;90.40
9437;DHT22;4757;59.334;18.034;2023-05-08T12:45:58;19.30;91.40
9437;DHT22;4757;59.334;18.034;2023-05-08T12:48:26;20.50;91.00
9437;DHT22;4757;59.334;18.034;2023-05-08T12:50:54;21.60;89.90
9437;DHT22;4757;59.334;18.034;2023-05-08T12:53:30;19.80;90.50
9437;DHT22;4757;59.334;18.034;2023-05-08T12:56:01;20.60;90.50
9437;DHT22;4757;59.334;18.034;2023-05-08T12:58:33;21.80;89.70
9437;DHT22;4757;59.334;18.034;2023-05-08T13:03:32;20.00;90.70
9437;DHT22;4757;59.334;18.034;2023-05-08T13:06:02;20.80;90.40
9437;DHT22;4757;59.334;18.034;2023-05-08T13:08:31;21.60;89.70
9437;DHT22;4757;59.334;18.034;2023-05-08T13:10:59;21.90;89.10
9437;DHT22;4757;59.334;18.034;2023-05-08T13:13:30;22.20;88.60
9437;DHT22;4757;59.334;18.034;2023-05-08T13:16:02;21.90;89.00
9437;DHT22;4757;59.334;18.034;2023-05-08T13:18:31;22.00;88.40
9437;DHT22;4757;59.334;18.034;2023-05-08T13:21:01;22.20;88.10
9437;DHT22;4757;59.334;18.034;2023-05-08T13:23:36;22.00;87.20
9437;DHT22;4757;59.334;18.034;2023-05-08T13:26:03;22.50;86.80
9437;DHT22;4757;59.334;18.034;2023-05-08T13:28:30;22.30;85.30
9437;DHT22;4757;59.334;18.034;2023-05-08T13:30:57;19.70;88.00
9437;DHT22;4757;59.334;18.034;2023-05-08T13:33:24;20.40;88.00
9437;DHT22;4757;59.334;18.034;2023-05-08T13:35:52;20.90;87.20
9437;DHT22;4757;59.334;18.034;2023-05-08T13:38:20;21.20;85.90
9437;DHT22;4757;59.334;18.034;2023-05-08T13:40:47;21.50;86.20
9437;DHT22;4757;59.334;18.034;2023-05-08T13:43:14;21.80;84.70
9437;DHT22;4757;59.334;18.034;2023-05-08T13:45:40;21.40;83.80
9437;DHT22;4757;59.334;18.034;2023-05-08T13:48:08;21.70;84.10
9437;DHT22;4757;59.334;18.034;2023-05-08T13:50:35;21.50;82.70
9437;DHT22;4757;59.334;18.034;2023-05-08T13:53:02;20.20;83.10
9437;DHT22;4757;59.334;18.034;2023-05-08T13:55:30;19.80;84.60
9437;DHT22;4757;59.334;18.034;2023-05-08T13:57:57;19.50;85.50
9437;DHT22;4757;59.334;18.034;2023-05-08T14:00:24;20.00;85.00
9437;DHT22;4757;59.334;18.034;2023-05-08T14:02:53;19.70;83.70
9437;DHT22;4757;59.334;18.034;2023-05-08T14:05:21;19.90;84.10
9437;DHT22;4757;59.334;18.034;2023-05-08T14:07:48;20.20;83.30
9437;DHT22;4757;59.334;18.034;2023-05-08T14:10:15;20.20;82.50
9437;DHT22;4757;59.334;18.034;2023-05-08T14:12:43;20.30;81.60
9437;DHT22;4757;59.334;18.034;2023-05-08T14:15:13;20.10;81.40
9437;DHT22;4757;59.334;18.034;2023-05-08T14:17:45;20.20;81.60
9437;DHT22;4757;59.334;18.034;2023-05-08T14:20:12;20.00;81.10
9437;DHT22;4757;59.334;18.034;2023-05-08T14:22:39;20.20;80.60
9437;DHT22;4757;59.334;18.034;2023-05-08T14:25:07;19.90;80.90
9437;DHT22;4757;59.334;18.034;2023-05-08T14:27:37;20.30;81.10
9437;DHT22;4757;59.334;18.034;2023-05-08T14:30:07;19.00;82.40
9437;DHT22;4757;59.334;18.034;2023-05-08T14:32:37;18.50;82.70
9437;DHT22;4757;59.334;18.034;2023-05-08T14:35:05;18.20;82.00
9437;DHT22;4757;59.334;18.034;2023-05-08T14:37:32;18.10;81.00
9437;DHT22;4757;59.334;18.034;2023-05-08T14:40:03;18.30;78.80
9437;DHT22;4757;59.334;18.034;2023-05-08T14:42:41;17.80;79.80
9437;DHT22;4757;59.334;18.034;2023-05-08T14:45:08;17.50;79.30
9437;DHT22;4757;59.334;18.034;2023-05-08T14:47:46;17.80;79.10
9437;DHT22;4757;59.334;18.034;2023-05-08T14:50:14;17.50;79.80
9437;DHT22;4757;59.334;18.034;2023-05-08T14:52:41;18.20;79.30
9437;DHT22;4757;59.334;18.034;2023-05-08T14:55:11;18.00;78.80
9437;DHT22;4757;59.334;18.034;2023-05-08T14:57:39;17.40;78.00
9437;DHT22;4757;59.334;18.034;2023-05-08T15:00:06;17.40;79.40
9437;DHT22;4757;59.334;18.034;2023-05-08T15:02:37;17.90;79.40
9437;DHT22;4757;59.334;18.034;2023-05-08T15:05:07;18.70;78.50
9437;DHT22;4757;59.334;18.034;2023-05-08T15:07:48;19.20;77.90
9437;DHT22;4757;59.334;18.034;2023-05-08T15:10:16;18.90;77.10
9437;DHT22;4757;59.334;18.034;2023-05-08T15:12:43;18.50;78.00
9437;DHT22;4757;59.334;18.034;2023-05-08T15:15:10;18.80;77.50
9437;DHT22;4757;59.334;18.034;2023-05-08T15:17:37;18.60;77.30
9437;DHT22;4757;59.334;18.034;2023-05-08T15:20:08;18.70;77.10
9437;DHT22;4757;59.334;18.034;2023-05-08T15:22:35;18.40;78.00
9437;DHT22;4757;59.334;18.034;2023-05-08T15:25:03;18.20;76.80
9437;DHT22;4757;59.334;18.034;2023-05-08T15:27:30;17.90;77.40
9437;DHT22;4757;59.334;18.034;2023-05-08T15:29:57;17.20;77.40
9437;DHT22;4757;59.334;18.034;2023-05-08T15:32:24;17.90;76.70
9437;DHT22;4757;59.334;18.034;2023-05-08T15:34:52;18.00;76.40
9437;DHT22;4757;59.334;18.034;2023-05-08T15:37:19;17.60;77.20
9437;DHT22;4757;59.334;18.034;2023-05-08T15:39:46;17.30;76.40
9437;DHT22;4757;59.334;18.034;2023-05-08T15:42:13;17.00;76.80
9437;DHT22;4757;59.334;18.034;2023-05-08T15:44:40;16.80;76.50
9437;DHT22;4757;59.334;18.034;2023-05-08T15:47:21;17.50;76.30
9437;DHT22;4757;59.334;18.034;2023-05-08T15:49:49;17.70;76.30
9437;DHT22;4757;59.334;18.034;2023-05-08T15:52:16;17.40;75.20
9437;DHT22;4757;59.334;18.034;2023-05-08T15:54:46;17.50;75.30
9437;DHT22;4757;59.334;18.034;2023-05-08T15:57:13;17.80;75.50
9437;DHT22;4757;59.334;18.034;2023-05-08T15:59:40;17.20;75.10
9437;DHT22;4757;59.334;18.034;2023-05-08T16:02:07;17.40;75.00
9437;DHT22;4757;59.334;18.034;2023-05-08T16:04:35;17.50;74.00
9437;DHT22;4757;59.334;18.034;2023-05-08T16:07:02;17.60;73.70
9437;DHT22;4757;59.334;18.034;2023-05-08T16:09:30;17.20;74.90
9437;DHT22;4757;59.334;18.034;2023-05-08T16:11:57;17.00;74.50
9437;DHT22;4757;59.334;18.034;2023-05-08T16:14:24;16.70;74.10
9437;DHT22;4757;59.334;18.034;2023-05-08T16:16:51;16.70;74.70
9437;DHT22;4757;59.334;18.034;2023-05-08T16:19:21;17.00;74.20
9437;DHT22;4757;59.334;18.034;2023-05-08T16:21:48;17.10;73.80
9437;DHT22;4757;59.334;18.034;2023-05-08T16:24:18;16.90;73.50
9437;DHT22;4757;59.334;18.034;2023-05-08T16:26:45;17.00;72.90
9437;DHT22;4757;59.334;18.034;2023-05-08T16:29:15;16.80;73.00
9437;DHT22;4757;59.334;18.034;2023-05-08T16:31:42;16.80;73.30
9437;DHT22;4757;59.334;18.034;2023-05-08T16:34:09;16.60;73.00
9437;DHT22;4757;59.334;18.034;2023-05-08T16:36:36;16.60;72.50
9437;DHT22;4757;59.334;18.034;2023-05-08T16:39:03;16.50;72.90
9437;DHT22;4757;59.334;18.034;2023-05-08T16:41:30;16.30;72.90
9437;DHT22;4757;59.334;18.034;2023-05-08T16:43:57;16.30;72.90
9437;DHT22;4757;59.334;18.034;2023-05-08T16:46:24;16.00;72.90
9437;DHT22;4757;59.334;18.034;2023-05-08T16:48:56;15.90;73.10
9437;DHT22;4757;59.334;18.034;2023-05-08T16:51:23;16.00;72.70
9437;DHT22;4757;59.334;18.034;2023-05-08T16:53:50;15.90;72.40
9437;DHT22;4757;59.334;18.034;2023-05-08T16:56:17;15.80;72.40
9437;DHT22;4757;59.334;18.034;2023-05-08T16:58:44;15.60;72.30